Current | Forecast
Updated: 11:30 PM +07 on October 21, 2017
Observed at Abakan, Russia
Temperature 48°F
Humidity 66%
Dew Point 37°F
Wind South at 7 mph
Pressure 29.95 in (Steady)
Conditions Clear
Visibility -
UV N/A
Clouds
Yesterday's Maximum 48°F
Yesterday's Minimum 30°F approx.
Yesterday's Heating Degree Days 26 approx.
Sunrise7:33 AM +07
Sunset5:37 PM +07
Moon Rise9:50 AM +07
Moon Set7:13 PM +07
Moon PhaseMoon Phase
Waxing Crescent
Raw METARMETAR UNAA 211630Z 19003MPS CAVOK 09/03 Q1014 R20/090065 NOSIG RMK QFE738


Monday
. High: 46° F.
Tuesday
. High: 50° F.
Wednesday
. High: 50° F.
Thursday
. High: 50° F.
Friday
. High: 57° F.
Saturday
. High: 62° F.
Sunday
. High: 71° F.
Monday
. High: 73° F.

Units: English | Metric

Find the Weather for any City, State or Zipcode, or Country:

U.S. State List | Severe Weather | Tropical Storms | Ski Conditions
United States | Canada | Central America | South America | Asia | Europe | Australia | Africa | Islands

Weather Underground

© Copyright 2017
The Weather Company, LLC